Time;durP1;ratioP1;P1;durP2;ratioP2;P2;SDS_P1;SDS_P2;PMS_P1;PMS_P2;Temp;Humidity;BMP_temperature;BMP_pressure;BME280_temperature;BME280_humidity;BME280_pressure;Samples;Min_cycle;Max_cycle;Signal;HPM_P1;HPM_P2
2022/01/04 00:00:43;;;;;;;;;;;22.30;49.10;;;;;;5114023;28;19946;-52
2022/01/04 00:03:10;;;;;;;;;;;22.30;48.50;;;;;;5114024;28;19928;-54
2022/01/04 00:05:38;;;;;;;;;;;22.30;48.50;;;;;;5116436;28;19946;-51
2022/01/04 00:08:09;;;;;;;;;;;22.30;48.50;;;;;;5117404;28;19930;-52
2022/01/04 00:10:36;;;;;;;;;;;22.30;48.50;;;;;;5117803;28;19924;-50
2022/01/04 00:15:54;;;;;;;;;;;22.30;48.50;;;;;;5117682;28;19947;-48
2022/01/04 00:18:21;;;;;;;;;;;22.30;48.50;;;;;;5117634;28;20302;-50
2022/01/04 00:20:49;;;;;;;;;;;22.30;48.50;;;;;;5116383;27;19924;-53
2022/01/04 00:23:16;;;;;;;;;;;22.30;48.50;;;;;;5116843;28;19930;-55
2022/01/04 00:25:44;;;;;;;;;;;22.30;48.50;;;;;;5117155;28;20387;-48
2022/01/04 00:28:11;;;;;;;;;;;22.30;48.50;;;;;;5117035;28;19928;-51
2022/01/04 00:30:39;;;;;;;;;;;22.30;48.50;;;;;;5117034;28;19924;-52
2022/01/04 00:33:08;;;;;;;;;;;22.30;48.50;;;;;;5117853;28;19931;-58
2022/01/04 00:35:36;;;;;;;;;;;22.30;48.50;;;;;;5115677;28;20011;-49
2022/01/04 00:38:03;;;;;;;;;;;22.30;48.50;;;;;;5116874;28;19924;-53
2022/01/04 00:40:30;;;;;;;;;;;22.30;48.50;;;;;;5116829;28;19924;-57
2022/01/04 00:43:00;;;;;;;;;;;22.30;48.50;;;;;;5116971;28;19924;-52
2022/01/04 00:45:31;;;;;;;;;;;22.30;48.50;;;;;;5117069;28;20343;-55
2022/01/04 00:50:28;;;;;;;;;;;22.30;48.50;;;;;;5115405;27;20393;-54
2022/01/04 00:52:56;;;;;;;;;;;22.30;48.50;;;;;;5116402;28;20015;-57
2022/01/04 00:55:23;;;;;;;;;;;22.30;48.60;;;;;;5116866;28;19924;-45
2022/01/04 00:57:50;;;;;;;;;;;22.30;48.50;;;;;;5116827;28;19923;-50
2022/01/04 01:00:18;;;;;;;;;;;22.30;48.60;;;;;;5116456;28;20410;-53
2022/01/04 01:02:45;;;;;;;;;;;22.30;48.50;;;;;;5098688;28;20006;-50
2022/01/04 01:05:13;;;;;;;;;;;22.30;48.60;;;;;;5115316;27;19924;-53
2022/01/04 01:07:40;;;;;;;;;;;22.30;48.60;;;;;;5098521;28;19923;-56
2022/01/04 01:10:33;;;;;;;;;;;22.20;48.50;;;;;;5116022;28;20383;-56
2022/01/04 01:12:56;;;;;;;;;;;22.20;48.50;;;;;;5115883;28;19923;-58
2022/01/04 01:15:24;;;;;;;;;;;22.30;48.50;;;;;;5098252;28;19924;-57
2022/01/04 01:17:51;;;;;;;;;;;22.20;48.50;;;;;;5116041;28;19931;-55
2022/01/04 01:20:18;;;;;;;;;;;22.30;48.50;;;;;;5114877;27;19967;-55
2022/01/04 01:22:46;;;;;;;;;;;22.20;48.50;;;;;;5116144;28;19924;-53
2022/01/04 01:25:13;;;;;;;;;;;22.20;48.50;;;;;;5115821;28;19935;-52
2022/01/04 01:27:41;;;;;;;;;;;22.30;48.60;;;;;;5115827;28;19930;-48
2022/01/04 01:30:09;;;;;;;;;;;22.30;48.50;;;;;;5115765;28;19937;-53
2022/01/04 01:32:36;;;;;;;;;;;22.20;48.50;;;;;;5116165;28;19923;-53
2022/01/04 01:35:03;;;;;;;;;;;22.20;48.50;;;;;;5114823;27;19947;-50
2022/01/04 01:37:30;;;;;;;;;;;22.20;48.50;;;;;;5116070;28;19947;-53
2022/01/04 01:39:57;;;;;;;;;;;22.20;48.50;;;;;;5115699;28;19924;-56
2022/01/04 01:42:25;;;;;;;;;;;22.20;48.50;;;;;;5115915;28;20031;-46
2022/01/04 01:44:52;;;;;;;;;;;22.20;48.50;;;;;;5115429;28;19930;-54
2022/01/04 01:47:19;;;;;;;;;;;22.20;48.50;;;;;;5115873;28;20279;-49
2022/01/04 01:49:46;;;;;;;;;;;22.20;48.50;;;;;;5114267;27;20403;-49
2022/01/04 01:52:14;;;;;;;;;;;22.20;48.50;;;;;;5097381;28;19924;-54
2022/01/04 01:54:41;;;;;;;;;;;22.20;48.50;;;;;;5115394;28;19924;-49
2022/01/04 01:57:08;;;;;;;;;;;22.20;48.50;;;;;;5115707;28;19924;-49
2022/01/04 01:59:35;;;;;;;;;;;22.20;48.50;;;;;;5115612;28;19923;-55
2022/01/04 02:02:03;;;;;;;;;;;22.20;48.50;;;;;;5115559;28;19934;-57
2022/01/04 02:04:30;;;;;;;;;;;22.20;48.50;;;;;;5115180;28;20442;-48
2022/01/04 02:06:57;;;;;;;;;;;22.20;48.50;;;;;;5113904;28;19931;-51
2022/01/04 02:09:26;;;;;;;;;;;22.20;48.50;;;;;;5115375;28;20023;-52
2022/01/04 02:11:54;;;;;;;;;;;22.20;48.50;;;;;;5115372;28;19928;-55
2022/01/04 02:14:21;;;;;;;;;;;22.20;48.50;;;;;;5114918;28;20383;-55
2022/01/04 02:16:47;;;;;;;;;;;22.20;48.50;;;;;;5114978;28;19931;-55
2022/01/04 02:19:16;;;;;;;;;;;22.20;48.50;;;;;;5114928;28;19957;-56
2022/01/04 02:21:44;;;;;;;;;;;22.20;48.50;;;;;;5113682;27;19930;-56
2022/01/04 02:24:11;;;;;;;;;;;22.20;48.50;;;;;;5114731;28;19928;-54
2022/01/04 02:26:39;;;;;;;;;;;22.20;48.50;;;;;;5114310;28;19924;-54
2022/01/04 02:29:07;;;;;;;;;;;22.20;48.50;;;;;;5114950;28;19924;-56
2022/01/04 02:31:37;;;;;;;;;;;22.20;48.50;;;;;;5115004;28;19923;-52
2022/01/04 02:34:04;;;;;;;;;;;22.20;48.50;;;;;;5114970;28;20401;-57
2022/01/04 02:36:31;;;;;;;;;;;22.20;48.50;;;;;;5113320;28;19924;-54
2022/01/04 02:38:58;;;;;;;;;;;22.20;48.50;;;;;;5114888;28;20408;-51
2022/01/04 02:41:25;;;;;;;;;;;22.20;48.50;;;;;;5114542;28;19931;-53
2022/01/04 02:43:52;;;;;;;;;;;22.20;48.50;;;;;;5114372;28;19931;-56
2022/01/04 02:46:19;;;;;;;;;;;22.20;48.50;;;;;;5114467;28;19923;-51
2022/01/04 02:48:47;;;;;;;;;;;22.20;48.50;;;;;;5114331;28;19992;-49
2022/01/04 02:51:16;;;;;;;;;;;22.20;48.50;;;;;;5113218;28;19923;-54
2022/01/04 02:53:43;;;;;;;;;;;22.20;48.50;;;;;;5114151;28;19927;-56
2022/01/04 02:56:11;;;;;;;;;;;22.20;48.50;;;;;;5096646;28;19924;-55
2022/01/04 02:58:38;;;;;;;;;;;22.20;48.50;;;;;;5114304;28;19924;-53
2022/01/04 03:01:05;;;;;;;;;;;22.20;48.50;;;;;;5114283;28;20018;-51
2022/01/04 03:03:33;;;;;;;;;;;22.20;48.50;;;;;;5114577;28;19923;-57
2022/01/04 03:06:00;;;;;;;;;;;22.20;48.50;;;;;;5113040;28;19923;-53
2022/01/04 03:08:27;;;;;;;;;;;22.20;48.50;;;;;;5114193;28;19931;-53
2022/01/04 03:10:55;;;;;;;;;;;22.20;48.50;;;;;;5114070;28;19924;-51
2022/01/04 03:13:22;;;;;;;;;;;22.20;48.50;;;;;;5114032;28;19969;-55
2022/01/04 03:15:49;;;;;;;;;;;22.20;48.50;;;;;;5114467;28;19924;-50
2022/01/04 03:18:16;;;;;;;;;;;22.20;48.50;;;;;;5114087;28;20383;-48
2022/01/04 03:20:43;;;;;;;;;;;22.20;48.50;;;;;;5112946;28;19932;-53
2022/01/04 03:23:10;;;;;;;;;;;22.20;48.50;;;;;;5113991;28;19947;-52
2022/01/04 03:25:39;;;;;;;;;;;22.20;48.50;;;;;;5114337;28;19931;-48
2022/01/04 03:28:06;;;;;;;;;;;22.20;49.10;;;;;;5114022;28;20383;-53
2022/01/04 03:30:34;;;;;;;;;;;22.20;48.50;;;;;;5096213;28;19927;-52
2022/01/04 03:33:01;;;;;;;;;;;22.20;48.50;;;;;;5096000;28;19924;-50
2022/01/04 03:35:28;;;;;;;;;;;22.20;48.50;;;;;;5113919;28;19931;-50
2022/01/04 03:37:55;;;;;;;;;;;22.20;48.50;;;;;;5112818;28;19924;-55
2022/01/04 03:40:22;;;;;;;;;;;22.20;48.50;;;;;;5117401;28;20322;-58
2022/01/04 03:42:49;;;;;;;;;;;22.20;48.50;;;;;;5117842;28;19931;-53
2022/01/04 03:45:16;;;;;;;;;;;22.20;48.50;;;;;;5117913;28;19923;-49
2022/01/04 03:47:43;;;;;;;;;;;22.20;48.50;;;;;;5118204;28;20373;-59
2022/01/04 03:50:10;;;;;;;;;;;22.20;48.50;;;;;;5117788;28;19930;-51
2022/01/04 03:52:38;;;;;;;;;;;22.20;48.50;;;;;;5116516;27;19924;-53
2022/01/04 03:55:06;;;;;;;;;;;22.10;48.40;;;;;;5118059;28;19924;-55
2022/01/04 03:57:33;;;;;;;;;;;22.20;48.50;;;;;;5117682;28;19927;-48
2022/01/04 04:00:00;;;;;;;;;;;22.20;48.50;;;;;;5117650;28;19931;-54
2022/01/04 04:02:28;;;;;;;;;;;22.20;48.50;;;;;;5117975;28;19946;-50
2022/01/04 04:04:56;;;;;;;;;;;22.20;48.50;;;;;;5099538;28;19924;-50
2022/01/04 04:07:23;;;;;;;;;;;22.10;48.40;;;;;;5116595;27;19928;-46
2022/01/04 04:09:50;;;;;;;;;;;22.10;48.40;;;;;;5117378;28;19934;-52
2022/01/04 04:12:17;;;;;;;;;;;22.10;48.40;;;;;;5117412;28;19924;-52
2022/01/04 04:14:44;;;;;;;;;;;22.10;48.40;;;;;;5117227;28;20371;-52
2022/01/04 04:17:17;;;;;;;;;;;22.10;48.40;;;;;;5118235;28;19963;-52
2022/01/04 04:19:44;;;;;;;;;;;22.10;48.40;;;;;;5117244;28;19924;-48
2022/01/04 04:22:11;;;;;;;;;;;22.10;48.40;;;;;;5116050;27;20283;-55
2022/01/04 04:24:38;;;;;;;;;;;22.10;48.40;;;;;;5117041;28;19924;-46
2022/01/04 04:27:05;;;;;;;;;;;22.10;48.40;;;;;;5117447;28;19924;-57
2022/01/04 04:29:33;;;;;;;;;;;22.10;48.40;;;;;;5117013;28;19931;-55
2022/01/04 04:32:01;;;;;;;;;;;22.10;48.40;;;;;;5117054;28;19924;-53
2022/01/04 04:34:28;;;;;;;;;;;22.10;48.40;;;;;;5117304;28;19930;-55
2022/01/04 04:36:55;;;;;;;;;;;22.10;48.40;;;;;;5115973;27;20032;-49
2022/01/04 04:39:22;;;;;;;;;;;22.10;48.40;;;;;;5116895;28;19924;-51
2022/01/04 04:41:49;;;;;;;;;;;22.10;48.40;;;;;;5117693;28;19931;-56
2022/01/04 04:44:17;;;;;;;;;;;22.10;49.00;;;;;;5117023;28;19930;-52
2022/01/04 04:46:44;;;;;;;;;;;22.10;48.50;;;;;;5117033;28;19988;-56
2022/01/04 04:49:11;;;;;;;;;;;22.10;48.40;;;;;;5116940;28;20259;-57
2022/01/04 04:51:39;;;;;;;;;;;22.10;48.40;;;;;;5115432;27;20003;-49
2022/01/04 04:54:07;;;;;;;;;;;22.10;48.40;;;;;;5116774;28;20287;-55
2022/01/04 04:56:38;;;;;;;;;;;22.10;48.40;;;;;;5116552;28;20401;-55
2022/01/04 04:59:05;;;;;;;;;;;22.10;48.40;;;;;;5116546;28;19930;-49
2022/01/04 05:01:32;;;;;;;;;;;22.10;48.40;;;;;;5116480;28;20418;-55
2022/01/04 05:04:00;;;;;;;;;;;22.10;48.40;;;;;;5116733;28;20272;-53
2022/01/04 05:06:27;;;;;;;;;;;22.10;48.40;;;;;;5116318;28;20387;-52
2022/01/04 05:08:55;;;;;;;;;;;22.10;48.40;;;;;;5115869;27;19924;-52
2022/01/04 05:11:22;;;;;;;;;;;22.10;48.50;;;;;;5116515;28;19931;-56
2022/01/04 05:13:49;;;;;;;;;;;22.10;48.50;;;;;;5098084;28;19923;-55
2022/01/04 05:16:16;;;;;;;;;;;22.10;48.40;;;;;;5116162;28;20383;-50
2022/01/04 05:18:43;;;;;;;;;;;22.10;48.40;;;;;;5116145;28;20410;-53
2022/01/04 05:21:10;;;;;;;;;;;22.10;48.50;;;;;;5098061;28;20383;-53
2022/01/04 05:23:37;;;;;;;;;;;22.10;48.50;;;;;;5114843;27;19938;-53
2022/01/04 05:26:04;;;;;;;;;;;22.10;48.50;;;;;;5115978;28;19924;-52
2022/01/04 05:28:31;;;;;;;;;;;22.10;48.50;;;;;;5115931;28;20375;-51
2022/01/04 05:31:00;;;;;;;;;;;22.10;48.50;;;;;;5116123;28;19970;-54
2022/01/04 05:33:28;;;;;;;;;;;22.10;48.50;;;;;;5116179;28;20290;-54
2022/01/04 05:35:55;;;;;;;;;;;22.10;48.50;;;;;;5115761;28;19924;-54
2022/01/04 05:38:22;;;;;;;;;;;22.10;48.50;;;;;;5114870;28;19947;-55
2022/01/04 05:40:49;;;;;;;;;;;22.10;48.50;;;;;;5116053;28;19931;-54
2022/01/04 05:43:16;;;;;;;;;;;22.10;48.50;;;;;;5115850;28;19924;-56
2022/01/04 05:45:44;;;;;;;;;;;22.10;48.50;;;;;;5115582;28;19927;-49
2022/01/04 05:48:18;;;;;;;;;;;22.10;48.50;;;;;;5115606;28;19931;-51
2022/01/04 05:50:45;;;;;;;;;;;22.10;48.50;;;;;;5115435;28;19923;-54
2022/01/04 05:53:12;;;;;;;;;;;22.10;48.50;;;;;;5114122;28;19931;-52
2022/01/04 05:55:39;;;;;;;;;;;22.00;48.40;;;;;;5115402;28;19930;-51
2022/01/04 05:58:06;;;;;;;;;;;22.00;48.40;;;;;;5115335;28;19931;-52
2022/01/04 06:00:33;;;;;;;;;;;22.10;48.50;;;;;;5115635;28;19923;-55
2022/01/04 06:03:01;;;;;;;;;;;22.10;48.50;;;;;;5114482;28;19923;-55
2022/01/04 06:05:28;;;;;;;;;;;22.00;48.40;;;;;;5115234;28;19923;-50
2022/01/04 06:07:55;;;;;;;;;;;22.00;48.40;;;;;;5113878;28;19924;-53
2022/01/04 06:10:23;;;;;;;;;;;22.00;48.40;;;;;;5097097;28;19930;-57
2022/01/04 06:15:17;;;;;;;;;;;22.00;48.40;;;;;;5115338;28;19924;-53
2022/01/04 06:17:47;;;;;;;;;;;22.00;48.40;;;;;;5114959;28;19928;-50
2022/01/04 06:20:15;;;;;;;;;;;22.00;48.40;;;;;;5115243;28;19980;-58
2022/01/04 06:22:42;;;;;;;;;;;22.00;48.50;;;;;;5113488;28;19942;-55
2022/01/04 06:25:11;;;;;;;;;;;22.00;48.40;;;;;;5114707;28;19963;-51
2022/01/04 06:27:41;;;;;;;;;;;22.00;48.50;;;;;;5115125;28;19931;-54
2022/01/04 06:30:08;;;;;;;;;;;22.00;49.10;;;;;;5114960;28;19924;-52
2022/01/04 06:32:36;;;;;;;;;;;22.00;48.50;;;;;;5114716;28;20398;-54
2022/01/04 06:35:04;;;;;;;;;;;22.00;48.50;;;;;;5115023;28;19924;-54
2022/01/04 06:37:32;;;;;;;;;;;22.00;48.50;;;;;;5113821;28;19924;-55
2022/01/04 06:39:59;;;;;;;;;;;22.00;48.50;;;;;;5134865;27;19923;-51
2022/01/04 06:42:26;;;;;;;;;;;22.00;48.50;;;;;;5135163;27;19924;-57
2022/01/04 06:44:53;;;;;;;;;;;22.00;48.50;;;;;;5135039;27;19930;-46
2022/01/04 06:47:21;;;;;;;;;;;22.00;48.50;;;;;;5135224;27;20325;-52
2022/01/04 06:49:48;;;;;;;;;;;22.00;48.50;;;;;;5134903;27;19923;-55
2022/01/04 06:52:15;;;;;;;;;;;22.00;48.50;;;;;;5135099;27;20291;-58
2022/01/04 06:54:42;;;;;;;;;;;22.00;48.50;;;;;;5115950;27;19923;-53
2022/01/04 06:57:14;;;;;;;;;;;22.00;48.50;;;;;;5114676;28;19934;-47
2022/01/04 06:59:41;;;;;;;;;;;22.00;48.50;;;;;;5114313;28;19924;-46
2022/01/04 07:02:11;;;;;;;;;;;22.00;48.50;;;;;;5114277;28;19930;-48
2022/01/04 07:04:38;;;;;;;;;;;22.00;48.50;;;;;;5114238;28;19969;-47
2022/01/04 07:07:05;;;;;;;;;;;22.00;48.50;;;;;;5114226;28;19924;-49
2022/01/04 07:09:32;;;;;;;;;;;22.00;48.50;;;;;;5112860;28;20391;-48
2022/01/04 07:12:02;;;;;;;;;;;22.00;48.50;;;;;;5114079;28;19923;-47
2022/01/04 07:14:29;;;;;;;;;;;22.00;48.50;;;;;;5114189;28;19927;-47
2022/01/04 07:16:56;;;;;;;;;;;22.00;48.50;;;;;;5114099;28;20408;-53
2022/01/04 07:19:23;;;;;;;;;;;22.00;48.40;;;;;;5114070;28;20379;-51
2022/01/04 07:21:50;;;;;;;;;;;22.00;48.40;;;;;;5114703;28;19927;-50
2022/01/04 07:24:17;;;;;;;;;;;22.00;48.40;;;;;;5112937;28;19924;-47
2022/01/04 07:26:44;;;;;;;;;;;22.00;48.50;;;;;;5113998;28;19927;-54
2022/01/04 07:29:11;;;;;;;;;;;22.00;48.40;;;;;;5114021;28;20015;-47
2022/01/04 07:31:38;;;;;;;;;;;22.00;48.40;;;;;;5114257;28;19931;-48
2022/01/04 07:34:05;;;;;;;;;;;22.00;48.40;;;;;;5114023;28;19924;-52
2022/01/04 07:36:32;;;;;;;;;;;22.00;48.40;;;;;;5113943;28;19924;-49
2022/01/04 07:39:00;;;;;;;;;;;22.00;48.40;;;;;;5112667;28;19924;-53
2022/01/04 07:41:27;;;;;;;;;;;22.00;48.40;;;;;;5113918;28;19932;-55
2022/01/04 07:43:54;;;;;;;;;;;22.00;48.40;;;;;;5114115;28;19928;-57
2022/01/04 07:46:23;;;;;;;;;;;22.00;48.40;;;;;;5113877;28;19924;-57
2022/01/04 07:48:50;;;;;;;;;;;22.00;48.40;;;;;;5113838;28;19928;-52
2022/01/04 07:51:18;;;;;;;;;;;22.00;48.40;;;;;;5114029;28;20372;-56
2022/01/04 07:53:45;;;;;;;;;;;22.10;48.40;;;;;;5112750;28;19928;-51
2022/01/04 07:56:12;;;;;;;;;;;22.00;48.30;;;;;;5113775;28;19923;-51
2022/01/04 07:58:40;;;;;;;;;;;22.10;48.40;;;;;;5113762;28;19924;-54
2022/01/04 08:01:07;;;;;;;;;;;22.00;48.30;;;;;;5113738;28;19923;-52
2022/01/04 08:03:34;;;;;;;;;;;22.00;48.30;;;;;;5113734;28;19984;-50
2022/01/04 08:06:02;;;;;;;;;;;22.10;48.40;;;;;;5113632;28;19924;-48
2022/01/04 08:08:29;;;;;;;;;;;22.00;48.30;;;;;;5112909;28;19930;-48
2022/01/04 08:10:56;;;;;;;;;;;22.10;48.40;;;;;;5113623;28;19923;-50
2022/01/04 08:13:27;;;;;;;;;;;22.10;48.40;;;;;;5113454;28;19924;-53
2022/01/04 08:15:54;;;;;;;;;;;22.10;48.30;;;;;;5113620;28;19934;-47
2022/01/04 08:18:21;;;;;;;;;;;22.10;48.30;;;;;;5113449;28;20019;-56
2022/01/04 08:20:53;;;;;;;;;;;22.10;48.20;;;;;;5113461;28;20381;-53
2022/01/04 08:23:21;;;;;;;;;;;22.10;48.20;;;;;;5113194;28;19924;-55
2022/01/04 08:25:48;;;;;;;;;;;22.10;48.20;;;;;;5114475;28;20367;-57
2022/01/04 08:28:15;;;;;;;;;;;22.10;48.10;;;;;;5117150;28;19924;-47
2022/01/04 08:30:43;;;;;;;;;;;22.10;48.10;;;;;;5099301;28;19931;-50
2022/01/04 08:33:10;;;;;;;;;;;22.10;48.10;;;;;;5117358;28;19931;-51
2022/01/04 08:35:38;;;;;;;;;;;22.10;48.00;;;;;;5116983;28;19930;-56
2022/01/04 08:38:06;;;;;;;;;;;22.20;48.10;;;;;;5116975;28;20014;-55
2022/01/04 08:40:33;;;;;;;;;;;22.20;48.10;;;;;;5115724;27;19924;-52
2022/01/04 08:43:00;;;;;;;;;;;22.20;48.00;;;;;;5117038;28;19924;-55
2022/01/04 08:45:27;;;;;;;;;;;22.20;48.00;;;;;;5117114;28;19923;-57
2022/01/04 08:47:55;;;;;;;;;;;22.20;48.00;;;;;;5116744;28;19985;-56
2022/01/04 08:50:27;;;;;;;;;;;22.20;47.90;;;;;;5116644;28;20379;-56
2022/01/04 08:52:55;;;;;;;;;;;22.20;47.90;;;;;;5116365;28;20405;-56
2022/01/04 08:55:23;;;;;;;;;;;22.20;47.90;;;;;;5115328;28;19963;-55
2022/01/04 08:57:50;;;;;;;;;;;22.20;47.90;;;;;;5116827;28;19928;-57
2022/01/04 09:00:18;;;;;;;;;;;22.30;48.00;;;;;;5116824;28;19924;-54
2022/01/04 09:02:45;;;;;;;;;;;22.20;47.80;;;;;;5116763;28;19990;-55
2022/01/04 09:05:13;;;;;;;;;;;22.30;47.90;;;;;;5116746;28;20329;-57
2022/01/04 09:07:41;;;;;;;;;;;22.30;47.80;;;;;;5116676;28;19931;-54
2022/01/04 09:10:08;;;;;;;;;;;22.30;47.80;;;;;;5115016;28;19935;-56
2022/01/04 09:12:51;;;;;;;;;;;22.30;48.40;;;;;;5116401;28;20395;-56
2022/01/04 09:15:32;;;;;;;;;;;22.30;47.70;;;;;;5116249;28;19924;-55
2022/01/04 09:21:04;;;;;;;;;;;22.40;47.80;;;;;;5116054;28;19949;-54
2022/01/04 09:23:31;;;;;;;;;;;22.40;47.70;;;;;;5115954;28;19941;-53
2022/01/04 09:25:58;;;;;;;;;;;22.40;47.70;;;;;;5114726;27;19931;-54
2022/01/04 09:28:27;;;;;;;;;;;22.40;47.60;;;;;;5116279;28;19930;-54
2022/01/04 09:30:55;;;;;;;;;;;22.40;47.60;;;;;;5115844;28;20397;-49
2022/01/04 09:33:22;;;;;;;;;;;22.40;47.60;;;;;;5115890;28;19931;-57
2022/01/04 09:35:49;;;;;;;;;;;22.40;47.50;;;;;;5115784;28;20000;-54
2022/01/04 09:38:17;;;;;;;;;;;22.50;47.60;;;;;;5114966;28;19927;-54
2022/01/04 09:40:45;;;;;;;;;;;22.50;47.60;;;;;;5114360;28;19923;-53
2022/01/04 09:43:12;;;;;;;;;;;22.50;47.60;;;;;;5115509;28;19923;-57
2022/01/04 09:45:39;;;;;;;;;;;22.50;47.60;;;;;;5115588;28;19931;-49
2022/01/04 09:48:07;;;;;;;;;;;22.50;47.50;;;;;;5115544;28;20275;-58
2022/01/04 09:50:36;;;;;;;;;;;22.50;47.50;;;;;;5116277;28;19924;-50
2022/01/04 09:53:06;;;;;;;;;;;22.50;47.40;;;;;;5115650;28;19923;-55
2022/01/04 09:55:34;;;;;;;;;;;22.50;47.40;;;;;;5114173;28;19923;-51
2022/01/04 09:58:01;;;;;;;;;;;22.50;47.40;;;;;;5115699;28;19924;-53
2022/01/04 10:00:28;;;;;;;;;;;22.50;47.40;;;;;;5115318;28;19924;-51
2022/01/04 10:03:10;;;;;;;;;;;22.50;47.40;;;;;;5115600;28;20385;-52
2022/01/04 10:05:38;;;;;;;;;;;22.50;47.40;;;;;;5115272;28;20454;-56
2022/01/04 10:08:11;;;;;;;;;;;22.50;47.40;;;;;;5115531;28;20014;-52
2022/01/04 10:10:38;;;;;;;;;;;22.50;47.40;;;;;;5113922;27;19931;-50
2022/01/04 10:13:08;;;;;;;;;;;22.60;47.40;;;;;;5114987;28;19935;-55
2022/01/04 10:15:35;;;;;;;;;;;22.60;47.40;;;;;;5115026;28;19923;-48
2022/01/04 10:18:23;;;;;;;;;;;22.60;47.40;;;;;;5115021;28;20393;-54
2022/01/04 10:21:01;;;;;;;;;;;22.60;47.40;;;;;;5114965;28;19967;-55
2022/01/04 10:23:30;;;;;;;;;;;22.60;47.40;;;;;;5114748;28;19945;-49
2022/01/04 10:26:06;;;;;;;;;;;22.60;47.40;;;;;;5113678;28;19924;-50
2022/01/04 10:28:35;;;;;;;;;;;22.60;47.40;;;;;;5114831;28;19924;-53
2022/01/04 10:31:04;;;;;;;;;;;22.60;47.40;;;;;;5114611;28;20450;-54
2022/01/04 10:33:32;;;;;;;;;;;22.60;47.40;;;;;;5115509;28;19931;-53
2022/01/04 10:36:00;;;;;;;;;;;22.70;47.40;;;;;;5114686;28;19931;-53
2022/01/04 10:38:33;;;;;;;;;;;22.60;47.40;;;;;;5114896;28;19924;-52
2022/01/04 10:41:03;;;;;;;;;;;22.60;47.40;;;;;;5113625;28;20397;-50
2022/01/04 10:43:44;;;;;;;;;;;22.60;47.40;;;;;;5114718;28;19924;-56
2022/01/04 10:46:12;;;;;;;;;;;22.70;47.40;;;;;;5114823;28;19924;-57
2022/01/04 10:48:41;;;;;;;;;;;22.70;47.40;;;;;;5114082;28;19973;-52
2022/01/04 10:51:10;;;;;;;;;;;22.70;47.40;;;;;;5114669;28;19923;-50
2022/01/04 10:53:47;;;;;;;;;;;22.70;47.40;;;;;;5114513;28;19927;-58
2022/01/04 10:56:16;;;;;;;;;;;22.70;47.40;;;;;;5113497;27;19947;-51
2022/01/04 10:58:44;;;;;;;;;;;22.70;47.40;;;;;;5114329;28;19927;-53
2022/01/04 11:01:13;;;;;;;;;;;22.70;47.40;;;;;;5114635;28;19924;-54
2022/01/04 11:03:45;;;;;;;;;;;22.70;47.40;;;;;;5114259;28;20383;-56
2022/01/04 11:06:15;;;;;;;;;;;22.70;47.40;;;;;;5096568;28;19931;-50
2022/01/04 11:08:43;;;;;;;;;;;22.70;47.40;;;;;;5114788;28;19924;-52
2022/01/04 11:11:10;;;;;;;;;;;22.70;47.40;;;;;;5113490;28;19969;-51
2022/01/04 11:13:38;;;;;;;;;;;22.70;47.40;;;;;;5113840;28;19924;-54
2022/01/04 11:16:06;;;;;;;;;;;22.70;47.40;;;;;;5114390;28;19938;-53
2022/01/04 11:18:34;;;;;;;;;;;22.70;47.40;;;;;;5114063;28;19928;-58
2022/01/04 11:21:02;;;;;;;;;;;22.70;47.40;;;;;;5114414;28;19924;-58
2022/01/04 11:23:32;;;;;;;;;;;22.70;47.40;;;;;;5113952;28;19931;-55
2022/01/04 11:26:02;;;;;;;;;;;22.70;47.40;;;;;;5112735;28;20408;-51
2022/01/04 11:28:29;;;;;;;;;;;22.70;47.40;;;;;;5113773;28;19930;-51
2022/01/04 11:31:14;;;;;;;;;;;22.70;47.40;;;;;;5113848;28;20401;-54
2022/01/04 11:33:46;;;;;;;;;;;22.80;47.40;;;;;;5114123;28;19924;-48
2022/01/04 11:36:14;;;;;;;;;;;22.80;47.40;;;;;;5115058;28;19924;-47
2022/01/04 11:38:42;;;;;;;;;;;22.80;47.40;;;;;;5113867;28;19924;-54
2022/01/04 11:41:19;;;;;;;;;;;22.80;47.40;;;;;;5094629;28;19928;-57
2022/01/04 11:43:46;;;;;;;;;;;22.80;47.40;;;;;;5113741;28;19924;-53
2022/01/04 11:46:30;;;;;;;;;;;22.80;47.40;;;;;;5113816;28;19930;-49
2022/01/04 11:49:09;;;;;;;;;;;22.80;47.40;;;;;;5113881;28;20450;-54
2022/01/04 11:51:38;;;;;;;;;;;22.80;47.40;;;;;;5114044;28;19931;-53
2022/01/04 11:54:15;;;;;;;;;;;22.80;47.40;;;;;;5113585;28;19924;-58
2022/01/04 11:56:50;;;;;;;;;;;22.80;47.40;;;;;;5112696;28;19924;-56
2022/01/04 11:59:19;;;;;;;;;;;22.80;47.40;;;;;;5113791;28;20374;-54
2022/01/04 12:01:46;;;;;;;;;;;22.80;47.40;;;;;;5117398;28;19924;-56
2022/01/04 12:04:33;;;;;;;;;;;22.80;47.40;;;;;;5117642;28;19931;-53
2022/01/04 12:07:02;;;;;;;;;;;22.80;47.40;;;;;;5117466;28;19924;-53
2022/01/04 12:09:29;;;;;;;;;;;22.80;47.40;;;;;;5117520;28;19923;-49
2022/01/04 12:11:57;;;;;;;;;;;22.80;47.40;;;;;;5116450;28;20298;-56
2022/01/04 12:14:25;;;;;;;;;;;22.80;47.50;;;;;;5117315;28;19930;-56
2022/01/04 12:17:03;;;;;;;;;;;22.80;48.00;;;;;;5117409;28;20401;-49
2022/01/04 12:19:50;;;;;;;;;;;22.80;47.50;;;;;;5118247;28;19923;-52
2022/01/04 12:22:31;;;;;;;;;;;22.80;47.50;;;;;;5117419;28;19923;-59
2022/01/04 12:25:03;;;;;;;;;;;22.80;47.50;;;;;;5117024;28;19931;-56
2022/01/04 12:27:30;;;;;;;;;;;22.80;47.50;;;;;;5115888;28;19924;-49
2022/01/04 12:30:16;;;;;;;;;;;22.90;47.60;;;;;;5117102;28;20048;-52
2022/01/04 12:32:43;;;;;;;;;;;22.90;47.60;;;;;;5099271;28;19931;-56
2022/01/04 12:35:11;;;;;;;;;;;22.90;47.60;;;;;;5116959;28;19992;-53
2022/01/04 12:37:38;;;;;;;;;;;22.90;47.60;;;;;;5098941;28;19970;-52
2022/01/04 12:40:05;;;;;;;;;;;22.90;47.60;;;;;;5117201;28;19931;-50
2022/01/04 12:42:32;;;;;;;;;;;22.90;47.60;;;;;;5115824;27;19924;-50
2022/01/04 12:45:00;;;;;;;;;;;22.90;47.60;;;;;;5116853;28;19924;-51
2022/01/04 12:47:28;;;;;;;;;;;22.90;47.60;;;;;;5116784;28;20444;-53
2022/01/04 12:49:58;;;;;;;;;;;22.90;47.60;;;;;;5117038;28;20379;-50
2022/01/04 12:52:25;;;;;;;;;;;22.90;47.60;;;;;;5116533;28;19923;-51
2022/01/04 12:54:52;;;;;;;;;;;22.90;47.50;;;;;;5116656;28;20430;-51
2022/01/04 12:57:24;;;;;;;;;;;23.00;47.60;;;;;;5115334;28;19931;-52
2022/01/04 12:59:53;;;;;;;;;;;23.00;47.60;;;;;;5116592;28;19923;-48
2022/01/04 13:02:24;;;;;;;;;;;23.00;47.60;;;;;;5116791;28;19924;-48
2022/01/04 13:05:00;;;;;;;;;;;23.00;47.60;;;;;;5116506;28;19924;-54
2022/01/04 13:07:31;;;;;;;;;;;23.00;47.60;;;;;;5116471;28;19928;-50
2022/01/04 13:09:58;;;;;;;;;;;23.00;47.60;;;;;;5116394;28;20294;-53
2022/01/04 13:12:27;;;;;;;;;;;23.00;47.60;;;;;;5114864;28;19975;-50
2022/01/04 13:14:55;;;;;;;;;;;23.00;47.60;;;;;;5116586;28;20299;-53
2022/01/04 13:17:23;;;;;;;;;;;23.00;47.60;;;;;;5116210;28;19924;-55
2022/01/04 13:19:50;;;;;;;;;;;23.00;47.60;;;;;;5098134;28;19927;-51
2022/01/04 13:22:21;;;;;;;;;;;23.00;47.60;;;;;;5115928;28;19928;-50
2022/01/04 13:24:50;;;;;;;;;;;23.00;47.60;;;;;;5097982;28;19928;-57
2022/01/04 13:27:21;;;;;;;;;;;23.00;47.60;;;;;;5115183;27;19961;-55
2022/01/04 13:29:50;;;;;;;;;;;23.00;47.60;;;;;;5115932;28;19931;-51
2022/01/04 13:32:20;;;;;;;;;;;23.00;47.70;;;;;;5115792;28;20026;-48
2022/01/04 13:34:47;;;;;;;;;;;23.00;47.60;;;;;;5115878;28;19928;-47
2022/01/04 13:37:14;;;;;;;;;;;23.10;47.70;;;;;;5116135;28;19924;-50
2022/01/04 13:39:48;;;;;;;;;;;23.00;47.70;;;;;;5115813;28;20484;-54
2022/01/04 13:42:38;;;;;;;;;;;23.00;47.70;;;;;;5114613;27;19983;-49
2022/01/04 13:45:10;;;;;;;;;;;23.00;47.70;;;;;;5115961;28;19924;-54
2022/01/04 13:47:39;;;;;;;;;;;23.00;47.70;;;;;;5115653;28;19975;-52
2022/01/04 13:50:11;;;;;;;;;;;23.00;47.80;;;;;;5115566;28;19930;-55
2022/01/04 13:52:38;;;;;;;;;;;23.00;47.80;;;;;;5115236;28;19928;-49
2022/01/04 13:55:06;;;;;;;;;;;23.00;47.80;;;;;;5115694;28;19978;-50
2022/01/04 13:57:33;;;;;;;;;;;23.00;47.80;;;;;;5114442;28;20045;-48
2022/01/04 14:00:19;;;;;;;;;;;23.00;47.80;;;;;;5115378;28;19924;-56
2022/01/04 14:02:46;;;;;;;;;;;23.00;47.80;;;;;;5115628;28;19928;-49
2022/01/04 14:05:19;;;;;;;;;;;23.00;47.80;;;;;;5115594;28;19973;-51
2022/01/04 14:07:57;;;;;;;;;;;23.00;47.90;;;;;;5115220;28;19923;-51
2022/01/04 14:10:42;;;;;;;;;;;23.00;47.90;;;;;;5115164;28;20020;-47
2022/01/04 14:13:28;;;;;;;;;;;23.00;48.00;;;;;;5113730;28;19924;-51
2022/01/04 14:16:05;;;;;;;;;;;23.00;48.00;;;;;;5115098;28;19971;-56
2022/01/04 14:18:33;;;;;;;;;;;23.00;48.00;;;;;;5114938;28;20383;-46
2022/01/04 14:21:00;;;;;;;;;;;23.00;48.00;;;;;;5114943;28;19923;-51
2022/01/04 14:23:31;;;;;;;;;;;23.00;48.10;;;;;;5113894;28;19963;-49
2022/01/04 14:26:05;;;;;;;;;;;23.00;48.10;;;;;;5114862;28;19924;-49
2022/01/04 14:28:34;;;;;;;;;;;23.00;48.10;;;;;;5113616;27;19924;-51
2022/01/04 14:31:04;;;;;;;;;;;23.00;48.10;;;;;;5114101;28;20220;-49
2022/01/04 14:33:31;;;;;;;;;;;23.00;48.10;;;;;;5114902;28;19928;-52
2022/01/04 14:35:58;;;;;;;;;;;23.00;48.10;;;;;;5114685;28;19923;-49